TAF KCDR
KCDR 270520Z 2706/2806 27009KT P6SM SCT200 FM271500 32013KT P6SM SCT100 FM280000 24006KT P6SM SKC=
METAR KCDR
WC KCDR
WS KCDR
WV KCDR